sensor_id;sensor_type;location;lat;lon;timestamp;pressure;altitude;pressure_sealevel;temperature;humidity
73422;BME280;61637;47.760;-122.022;2024-01-30T00:00:01;101354.65269999999;;;15.3;83.0
73422;BME280;61637;47.760;-122.022;2024-01-30T00:02:00;101320.7888;;;15.2;84.0
73422;BME280;61637;47.760;-122.022;2024-01-30T00:04:00;101354.65269999999;;;15.2;84.0
73422;BME280;61637;47.760;-122.022;2024-01-30T00:06:01;101320.7888;;;15.2;84.0
73422;BME280;61637;47.760;-122.022;2024-01-30T00:08:00;101320.7888;;;15.1;84.0
73422;BME280;61637;47.760;-122.022;2024-01-30T00:10:00;101320.7888;;;15.1;84.0
73422;BME280;61637;47.760;-122.022;2024-01-30T00:12:01;101320.7888;;;15.1;85.0
73422;BME280;61637;47.760;-122.022;2024-01-30T00:14:00;101320.7888;;;14.9;85.0
73422;BME280;61637;47.760;-122.022;2024-01-30T00:16:00;101320.7888;;;14.9;85.0
73422;BME280;61637;47.760;-122.022;2024-01-30T00:18:01;101320.7888;;;14.9;85.0
73422;BME280;61637;47.760;-122.022;2024-01-30T00:20:00;101320.7888;;;14.8;84.0
73422;BME280;61637;47.760;-122.022;2024-01-30T00:22:00;101320.7888;;;14.8;84.0
73422;BME280;61637;47.760;-122.022;2024-01-30T00:24:01;101320.7888;;;14.7;85.0
73422;BME280;61637;47.760;-122.022;2024-01-30T00:26:00;101320.7888;;;14.7;85.0
73422;BME280;61637;47.760;-122.022;2024-01-30T00:28:00;101320.7888;;;14.6;85.0
73422;BME280;61637;47.760;-122.022;2024-01-30T00:30:01;101320.7888;;;14.6;84.0
73422;BME280;61637;47.760;-122.022;2024-01-30T00:32:00;101320.7888;;;14.5;84.0
73422;BME280;61637;47.760;-122.022;2024-01-30T00:34:00;101320.7888;;;14.4;85.0
73422;BME280;61637;47.760;-122.022;2024-01-30T00:36:01;101320.7888;;;14.4;85.0
73422;BME280;61637;47.760;-122.022;2024-01-30T00:38:00;101320.7888;;;14.4;85.0
73422;BME280;61637;47.760;-122.022;2024-01-30T00:40:01;101320.7888;;;14.3;85.0
73422;BME280;61637;47.760;-122.022;2024-01-30T00:42:00;101320.7888;;;14.3;85.0
73422;BME280;61637;47.760;-122.022;2024-01-30T00:44:00;101320.7888;;;14.3;85.0
73422;BME280;61637;47.760;-122.022;2024-01-30T00:46:01;101286.9249;;;14.3;84.0
73422;BME280;61637;47.760;-122.022;2024-01-30T00:48:01;101286.9249;;;14.3;84.0
73422;BME280;61637;47.760;-122.022;2024-01-30T00:50:00;101286.9249;;;14.3;83.0
73422;BME280;61637;47.760;-122.022;2024-01-30T00:52:01;101286.9249;;;14.2;84.0
73422;BME280;61637;47.760;-122.022;2024-01-30T00:54:00;101286.9249;;;14.2;83.0
73422;BME280;61637;47.760;-122.022;2024-01-30T00:56:00;101286.9249;;;14.2;84.0
73422;BME280;61637;47.760;-122.022;2024-01-30T00:58:00;101286.9249;;;14.2;81.0
73422;BME280;61637;47.760;-122.022;2024-01-30T01:00:01;101286.9249;;;14.2;82.0
73422;BME280;61637;47.760;-122.022;2024-01-30T01:02:00;101286.9249;;;14.2;81.0
73422;BME280;61637;47.760;-122.022;2024-01-30T01:04:01;101286.9249;;;14.3;81.0
73422;BME280;61637;47.760;-122.022;2024-01-30T01:06:00;101286.9249;;;14.3;81.0
73422;BME280;61637;47.760;-122.022;2024-01-30T01:08:00;101253.06099999999;;;14.4;79.0
73422;BME280;61637;47.760;-122.022;2024-01-30T01:10:01;101253.06099999999;;;14.7;75.0
73422;BME280;61637;47.760;-122.022;2024-01-30T01:12:01;101253.06099999999;;;14.9;77.0
73422;BME280;61637;47.760;-122.022;2024-01-30T01:14:00;101286.9249;;;14.9;79.0
73422;BME280;61637;47.760;-122.022;2024-01-30T01:16:00;101286.9249;;;14.9;79.0
73422;BME280;61637;47.760;-122.022;2024-01-30T01:18:00;101253.06099999999;;;14.8;79.0
73422;BME280;61637;47.760;-122.022;2024-01-30T01:20:01;101253.06099999999;;;14.7;79.0
73422;BME280;61637;47.760;-122.022;2024-01-30T01:22:01;101253.06099999999;;;14.6;79.0
73422;BME280;61637;47.760;-122.022;2024-01-30T01:24:01;101253.06099999999;;;14.4;80.0
73422;BME280;61637;47.760;-122.022;2024-01-30T01:26:00;101253.06099999999;;;14.3;80.0
73422;BME280;61637;47.760;-122.022;2024-01-30T01:28:01;101253.06099999999;;;14.2;81.0
73422;BME280;61637;47.760;-122.022;2024-01-30T01:30:00;101253.06099999999;;;14.1;81.0
73422;BME280;61637;47.760;-122.022;2024-01-30T01:32:00;101253.06099999999;;;14.0;82.0
73422;BME280;61637;47.760;-122.022;2024-01-30T01:34:00;101253.06099999999;;;13.9;81.0
73422;BME280;61637;47.760;-122.022;2024-01-30T01:36:01;101253.06099999999;;;13.9;82.0
73422;BME280;61637;47.760;-122.022;2024-01-30T01:38:00;101253.06099999999;;;13.9;81.0
73422;BME280;61637;47.760;-122.022;2024-01-30T01:40:01;101253.06099999999;;;13.9;82.0
73422;BME280;61637;47.760;-122.022;2024-01-30T01:42:01;101286.9249;;;13.9;82.0
73422;BME280;61637;47.760;-122.022;2024-01-30T01:44:00;101253.06099999999;;;13.9;82.0
73422;BME280;61637;47.760;-122.022;2024-01-30T01:46:00;101286.9249;;;13.8;81.0
73422;BME280;61637;47.760;-122.022;2024-01-30T01:48:01;101286.9249;;;13.8;81.0
73422;BME280;61637;47.760;-122.022;2024-01-30T01:50:00;101286.9249;;;13.8;81.0
73422;BME280;61637;47.760;-122.022;2024-01-30T01:52:01;101286.9249;;;13.8;79.0
73422;BME280;61637;47.760;-122.022;2024-01-30T01:54:01;101286.9249;;;13.8;79.0
73422;BME280;61637;47.760;-122.022;2024-01-30T01:56:00;101286.9249;;;13.8;80.0
73422;BME280;61637;47.760;-122.022;2024-01-30T01:58:00;101286.9249;;;13.8;80.0
73422;BME280;61637;47.760;-122.022;2024-01-30T02:00:01;101286.9249;;;13.8;79.0
73422;BME280;61637;47.760;-122.022;2024-01-30T02:02:00;101286.9249;;;13.8;80.0
73422;BME280;61637;47.760;-122.022;2024-01-30T02:04:01;101286.9249;;;13.8;78.0
73422;BME280;61637;47.760;-122.022;2024-01-30T02:06:01;101286.9249;;;13.9;79.0
73422;BME280;61637;47.760;-122.022;2024-01-30T02:08:01;101286.9249;;;13.9;77.0
73422;BME280;61637;47.760;-122.022;2024-01-30T02:10:00;101286.9249;;;14.1;76.0
73422;BME280;61637;47.760;-122.022;2024-01-30T02:12:01;101286.9249;;;14.1;75.0
73422;BME280;61637;47.760;-122.022;2024-01-30T02:14:02;101320.7888;;;14.2;78.0
73422;BME280;61637;47.760;-122.022;2024-01-30T02:16:01;101320.7888;;;14.2;77.0
73422;BME280;61637;47.760;-122.022;2024-01-30T02:18:00;101320.7888;;;14.2;76.0
73422;BME280;61637;47.760;-122.022;2024-01-30T02:20:01;101320.7888;;;14.2;75.0
73422;BME280;61637;47.760;-122.022;2024-01-30T02:22:00;101354.65269999999;;;14.3;73.0
73422;BME280;61637;47.760;-122.022;2024-01-30T02:24:01;101354.65269999999;;;14.4;73.0
73422;BME280;61637;47.760;-122.022;2024-01-30T02:26:00;101354.65269999999;;;14.4;74.0
73422;BME280;61637;47.760;-122.022;2024-01-30T02:28:00;101354.65269999999;;;14.5;74.0
73422;BME280;61637;47.760;-122.022;2024-01-30T02:30:00;101354.65269999999;;;14.5;73.0
73422;BME280;61637;47.760;-122.022;2024-01-30T02:32:01;101354.65269999999;;;14.6;73.0
73422;BME280;61637;47.760;-122.022;2024-01-30T02:34:00;101354.65269999999;;;14.6;73.0
73422;BME280;61637;47.760;-122.022;2024-01-30T02:36:01;101354.65269999999;;;14.6;74.0
73422;BME280;61637;47.760;-122.022;2024-01-30T02:38:00;101354.65269999999;;;14.6;74.0
73422;BME280;61637;47.760;-122.022;2024-01-30T02:40:01;101354.65269999999;;;14.5;75.0
73422;BME280;61637;47.760;-122.022;2024-01-30T02:42:00;101354.65269999999;;;14.4;75.0
73422;BME280;61637;47.760;-122.022;2024-01-30T02:44:00;101354.65269999999;;;14.4;74.0
73422;BME280;61637;47.760;-122.022;2024-01-30T02:46:00;101354.65269999999;;;14.4;73.0
73422;BME280;61637;47.760;-122.022;2024-01-30T02:48:01;101388.5166;;;14.4;74.0
73422;BME280;61637;47.760;-122.022;2024-01-30T02:50:01;101354.65269999999;;;14.3;73.0
73422;BME280;61637;47.760;-122.022;2024-01-30T02:52:00;101388.5166;;;14.3;73.0
73422;BME280;61637;47.760;-122.022;2024-01-30T02:54:00;101388.5166;;;14.3;74.0
73422;BME280;61637;47.760;-122.022;2024-01-30T02:56:01;101388.5166;;;14.3;74.0
73422;BME280;61637;47.760;-122.022;2024-01-30T02:58:00;101388.5166;;;14.3;75.0
73422;BME280;61637;47.760;-122.022;2024-01-30T03:00:01;101388.5166;;;14.2;76.0
73422;BME280;61637;47.760;-122.022;2024-01-30T03:02:01;101388.5166;;;14.2;76.0
73422;BME280;61637;47.760;-122.022;2024-01-30T03:04:00;101388.5166;;;14.1;76.0
73422;BME280;61637;47.760;-122.022;2024-01-30T03:06:01;101388.5166;;;14.0;78.0
73422;BME280;61637;47.760;-122.022;2024-01-30T03:08:00;101388.5166;;;13.9;78.0
73422;BME280;61637;47.760;-122.022;2024-01-30T03:10:00;101388.5166;;;13.9;79.0
73422;BME280;61637;47.760;-122.022;2024-01-30T03:12:01;101388.5166;;;13.8;79.0
73422;BME280;61637;47.760;-122.022;2024-01-30T03:14:01;101388.5166;;;13.8;79.0
73422;BME280;61637;47.760;-122.022;2024-01-30T03:16:00;101388.5166;;;13.8;79.0
73422;BME280;61637;47.760;-122.022;2024-01-30T03:18:01;101388.5166;;;13.7;80.0
73422;BME280;61637;47.760;-122.022;2024-01-30T03:20:00;101388.5166;;;13.7;79.0
73422;BME280;61637;47.760;-122.022;2024-01-30T03:22:00;101388.5166;;;13.7;80.0
73422;BME280;61637;47.760;-122.022;2024-01-30T03:24:01;101422.3805;;;13.6;79.0
73422;BME280;61637;47.760;-122.022;2024-01-30T03:26:01;101388.5166;;;13.6;80.0
73422;BME280;61637;47.760;-122.022;2024-01-30T03:28:00;101422.3805;;;13.6;79.0
73422;BME280;61637;47.760;-122.022;2024-01-30T03:30:00;101422.3805;;;13.6;78.0
73422;BME280;61637;47.760;-122.022;2024-01-30T03:32:00;101422.3805;;;13.6;80.0
73422;BME280;61637;47.760;-122.022;2024-01-30T03:34:01;101422.3805;;;13.5;80.0
73422;BME280;61637;47.760;-122.022;2024-01-30T03:36:03;101422.3805;;;13.5;79.0
73422;BME280;61637;47.760;-122.022;2024-01-30T03:38:00;101422.3805;;;13.5;80.0
73422;BME280;61637;47.760;-122.022;2024-01-30T03:40:01;101422.3805;;;13.4;79.0
73422;BME280;61637;47.760;-122.022;2024-01-30T03:42:00;101422.3805;;;13.5;78.0
73422;BME280;61637;47.760;-122.022;2024-01-30T03:44:00;101422.3805;;;13.6;77.0
73422;BME280;61637;47.760;-122.022;2024-01-30T03:46:01;101422.3805;;;13.6;79.0
73422;BME280;61637;47.760;-122.022;2024-01-30T03:48:01;101422.3805;;;13.6;79.0
73422;BME280;61637;47.760;-122.022;2024-01-30T03:50:00;101456.2444;;;13.6;78.0
73422;BME280;61637;47.760;-122.022;2024-01-30T03:52:00;101456.2444;;;13.6;79.0
73422;BME280;61637;47.760;-122.022;2024-01-30T03:54:00;101456.2444;;;13.6;80.0
73422;BME280;61637;47.760;-122.022;2024-01-30T03:56:00;101456.2444;;;13.5;79.0
73422;BME280;61637;47.760;-122.022;2024-01-30T03:58:01;101422.3805;;;13.4;79.0
73422;BME280;61637;47.760;-122.022;2024-01-30T04:00:01;101456.2444;;;13.4;79.0
73422;BME280;61637;47.760;-122.022;2024-01-30T04:02:00;101456.2444;;;13.4;80.0
73422;BME280;61637;47.760;-122.022;2024-01-30T04:04:01;101456.2444;;;13.5;75.0
73422;BME280;61637;47.760;-122.022;2024-01-30T04:06:00;101456.2444;;;13.6;78.0
73422;BME280;61637;47.760;-122.022;2024-01-30T04:08:00;101456.2444;;;13.6;79.0
73422;BME280;61637;47.760;-122.022;2024-01-30T04:10:01;101456.2444;;;13.6;79.0
73422;BME280;61637;47.760;-122.022;2024-01-30T04:12:01;101456.2444;;;13.6;77.0
73422;BME280;61637;47.760;-122.022;2024-01-30T04:14:01;101490.10829999999;;;13.6;77.0
73422;BME280;61637;47.760;-122.022;2024-01-30T04:16:01;101490.10829999999;;;13.6;76.0
73422;BME280;61637;47.760;-122.022;2024-01-30T04:18:00;101523.9722;;;13.6;78.0
73422;BME280;61637;47.760;-122.022;2024-01-30T04:20:00;101523.9722;;;13.6;78.0
73422;BME280;61637;47.760;-122.022;2024-01-30T04:22:00;101523.9722;;;13.6;79.0
73422;BME280;61637;47.760;-122.022;2024-01-30T04:24:01;101523.9722;;;13.5;80.0
73422;BME280;61637;47.760;-122.022;2024-01-30T04:26:01;101523.9722;;;13.4;80.0
73422;BME280;61637;47.760;-122.022;2024-01-30T04:28:00;101557.83609999999;;;13.3;81.0
73422;BME280;61637;47.760;-122.022;2024-01-30T04:30:00;101557.83609999999;;;13.3;81.0
73422;BME280;61637;47.760;-122.022;2024-01-30T04:32:00;101557.83609999999;;;13.2;82.0
73422;BME280;61637;47.760;-122.022;2024-01-30T04:34:00;101557.83609999999;;;13.1;82.0
73422;BME280;61637;47.760;-122.022;2024-01-30T04:36:01;101557.83609999999;;;13.1;82.0
73422;BME280;61637;47.760;-122.022;2024-01-30T04:38:01;101591.7;;;13.1;83.0
73422;BME280;61637;47.760;-122.022;2024-01-30T04:40:00;101591.7;;;13.1;83.0
73422;BME280;61637;47.760;-122.022;2024-01-30T04:42:00;101591.7;;;13.1;83.0
73422;BME280;61637;47.760;-122.022;2024-01-30T04:44:00;101591.7;;;13.1;83.0
73422;BME280;61637;47.760;-122.022;2024-01-30T04:46:01;101557.83609999999;;;13.1;83.0
73422;BME280;61637;47.760;-122.022;2024-01-30T04:48:01;101557.83609999999;;;13.1;83.0
73422;BME280;61637;47.760;-122.022;2024-01-30T04:50:01;101557.83609999999;;;13.2;83.0
73422;BME280;61637;47.760;-122.022;2024-01-30T04:52:01;101557.83609999999;;;13.2;83.0
73422;BME280;61637;47.760;-122.022;2024-01-30T04:54:00;101591.7;;;13.3;83.0
73422;BME280;61637;47.760;-122.022;2024-01-30T04:56:00;101557.83609999999;;;13.5;82.0
73422;BME280;61637;47.760;-122.022;2024-01-30T04:58:00;101557.83609999999;;;13.6;82.0
73422;BME280;61637;47.760;-122.022;2024-01-30T05:00:00;101591.7;;;13.7;81.0
73422;BME280;61637;47.760;-122.022;2024-01-30T05:02:01;101591.7;;;13.7;81.0
73422;BME280;61637;47.760;-122.022;2024-01-30T05:04:00;101557.83609999999;;;13.8;80.0
73422;BME280;61637;47.760;-122.022;2024-01-30T05:06:01;101591.7;;;13.9;80.0
73422;BME280;61637;47.760;-122.022;2024-01-30T05:08:00;101591.7;;;13.9;80.0
73422;BME280;61637;47.760;-122.022;2024-01-30T05:10:01;101591.7;;;13.9;80.0
73422;BME280;61637;47.760;-122.022;2024-01-30T05:12:01;101591.7;;;14.0;81.0
73422;BME280;61637;47.760;-122.022;2024-01-30T05:14:01;101591.7;;;14.0;81.0
73422;BME280;61637;47.760;-122.022;2024-01-30T05:16:01;101591.7;;;13.9;81.0
73422;BME280;61637;47.760;-122.022;2024-01-30T05:18:01;101591.7;;;13.9;80.0
73422;BME280;61637;47.760;-122.022;2024-01-30T05:20:00;101591.7;;;13.9;80.0
73422;BME280;61637;47.760;-122.022;2024-01-30T05:22:00;101591.7;;;13.8;80.0
73422;BME280;61637;47.760;-122.022;2024-01-30T05:24:00;101591.7;;;13.8;81.0
73422;BME280;61637;47.760;-122.022;2024-01-30T05:26:01;101591.7;;;13.7;80.0
73422;BME280;61637;47.760;-122.022;2024-01-30T05:28:00;101591.7;;;13.7;80.0
73422;BME280;61637;47.760;-122.022;2024-01-30T05:30:00;101591.7;;;13.7;80.0
73422;BME280;61637;47.760;-122.022;2024-01-30T05:32:01;101591.7;;;13.7;81.0
73422;BME280;61637;47.760;-122.022;2024-01-30T05:34:00;101591.7;;;13.7;80.0
73422;BME280;61637;47.760;-122.022;2024-01-30T05:36:00;101591.7;;;13.7;81.0
73422;BME280;61637;47.760;-122.022;2024-01-30T05:38:01;101591.7;;;13.7;81.0
73422;BME280;61637;47.760;-122.022;2024-01-30T05:40:01;101591.7;;;13.7;81.0
73422;BME280;61637;47.760;-122.022;2024-01-30T05:42:00;101591.7;;;13.6;81.0
73422;BME280;61637;47.760;-122.022;2024-01-30T05:44:01;101591.7;;;13.6;81.0
73422;BME280;61637;47.760;-122.022;2024-01-30T05:46:00;101591.7;;;13.7;80.0
73422;BME280;61637;47.760;-122.022;2024-01-30T05:48:01;101625.56390000001;;;13.7;81.0
73422;BME280;61637;47.760;-122.022;2024-01-30T05:50:01;101591.7;;;13.7;81.0
73422;BME280;61637;47.760;-122.022;2024-01-30T05:52:01;101625.56390000001;;;13.7;80.0
73422;BME280;61637;47.760;-122.022;2024-01-30T05:54:00;101625.56390000001;;;13.7;80.0
73422;BME280;61637;47.760;-122.022;2024-01-30T05:56:01;101625.56390000001;;;13.7;80.0
73422;BME280;61637;47.760;-122.022;2024-01-30T05:58:00;101591.7;;;13.8;82.0
73422;BME280;61637;47.760;-122.022;2024-01-30T06:00:00;101591.7;;;13.7;81.0
73422;BME280;61637;47.760;-122.022;2024-01-30T06:02:01;101591.7;;;13.7;82.0
73422;BME280;61637;47.760;-122.022;2024-01-30T06:04:01;101625.56390000001;;;13.6;81.0
73422;BME280;61637;47.760;-122.022;2024-01-30T06:06:01;101625.56390000001;;;13.6;82.0
73422;BME280;61637;47.760;-122.022;2024-01-30T06:08:01;101625.56390000001;;;13.6;80.0
73422;BME280;61637;47.760;-122.022;2024-01-30T06:10:00;101659.42779999999;;;13.6;80.0
73422;BME280;61637;47.760;-122.022;2024-01-30T06:12:00;101659.42779999999;;;13.6;82.0
73422;BME280;61637;47.760;-122.022;2024-01-30T06:14:01;101659.42779999999;;;13.6;80.0
73422;BME280;61637;47.760;-122.022;2024-01-30T06:16:00;101625.56390000001;;;13.6;81.0
73422;BME280;61637;47.760;-122.022;2024-01-30T06:18:00;101659.42779999999;;;13.5;80.0
73422;BME280;61637;47.760;-122.022;2024-01-30T06:20:01;101659.42779999999;;;13.5;81.0
73422;BME280;61637;47.760;-122.022;2024-01-30T06:22:00;101659.42779999999;;;13.5;81.0
73422;BME280;61637;47.760;-122.022;2024-01-30T06:24:00;101659.42779999999;;;13.4;80.0
73422;BME280;61637;47.760;-122.022;2024-01-30T06:26:01;101659.42779999999;;;13.4;80.0
73422;BME280;61637;47.760;-122.022;2024-01-30T06:28:01;101659.42779999999;;;13.4;79.0
73422;BME280;61637;47.760;-122.022;2024-01-30T06:30:01;101693.2917;;;13.4;79.0
73422;BME280;61637;47.760;-122.022;2024-01-30T06:32:01;101693.2917;;;13.4;79.0
73422;BME280;61637;47.760;-122.022;2024-01-30T06:34:00;101693.2917;;;13.4;79.0
73422;BME280;61637;47.760;-122.022;2024-01-30T06:36:00;101693.2917;;;13.4;79.0
73422;BME280;61637;47.760;-122.022;2024-01-30T06:38:01;101693.2917;;;13.4;76.0
73422;BME280;61637;47.760;-122.022;2024-01-30T06:40:00;101693.2917;;;13.5;76.0
73422;BME280;61637;47.760;-122.022;2024-01-30T06:42:00;101727.1556;;;13.6;79.0
73422;BME280;61637;47.760;-122.022;2024-01-30T06:44:02;101727.1556;;;13.5;75.0
73422;BME280;61637;47.760;-122.022;2024-01-30T06:46:00;101727.1556;;;13.6;77.0
73422;BME280;61637;47.760;-122.022;2024-01-30T06:48:00;101727.1556;;;13.6;77.0
73422;BME280;61637;47.760;-122.022;2024-01-30T06:50:01;101727.1556;;;13.6;78.0
73422;BME280;61637;47.760;-122.022;2024-01-30T06:52:00;101727.1556;;;13.6;77.0
73422;BME280;61637;47.760;-122.022;2024-01-30T06:54:00;101761.0195;;;13.6;76.0
73422;BME280;61637;47.760;-122.022;2024-01-30T06:56:01;101727.1556;;;13.6;76.0
73422;BME280;61637;47.760;-122.022;2024-01-30T06:58:00;101727.1556;;;13.6;76.0
73422;BME280;61637;47.760;-122.022;2024-01-30T07:00:01;101761.0195;;;13.6;76.0
73422;BME280;61637;47.760;-122.022;2024-01-30T07:02:01;101761.0195;;;13.6;79.0
73422;BME280;61637;47.760;-122.022;2024-01-30T07:04:00;101727.1556;;;13.5;80.0
73422;BME280;61637;47.760;-122.022;2024-01-30T07:06:00;101761.0195;;;13.4;81.0
73422;BME280;61637;47.760;-122.022;2024-01-30T07:08:00;101727.1556;;;13.2;83.0
73422;BME280;61637;47.760;-122.022;2024-01-30T07:10:00;101727.1556;;;13.1;84.0
73422;BME280;61637;47.760;-122.022;2024-01-30T07:12:00;101727.1556;;;13.0;84.0
73422;BME280;61637;47.760;-122.022;2024-01-30T07:14:01;101727.1556;;;12.9;84.0
73422;BME280;61637;47.760;-122.022;2024-01-30T07:16:00;101727.1556;;;12.8;84.0
73422;BME280;61637;47.760;-122.022;2024-01-30T07:18:04;101727.1556;;;12.7;83.0
73422;BME280;61637;47.760;-122.022;2024-01-30T07:20:00;101727.1556;;;12.6;83.0
73422;BME280;61637;47.760;-122.022;2024-01-30T07:22:00;101727.1556;;;12.5;84.0
73422;BME280;61637;47.760;-122.022;2024-01-30T07:24:00;101727.1556;;;12.5;84.0
73422;BME280;61637;47.760;-122.022;2024-01-30T07:26:01;101727.1556;;;12.4;84.0
73422;BME280;61637;47.760;-122.022;2024-01-30T07:28:00;101693.2917;;;12.4;84.0
73422;BME280;61637;47.760;-122.022;2024-01-30T07:30:01;101693.2917;;;12.3;85.0
73422;BME280;61637;47.760;-122.022;2024-01-30T07:32:00;101659.42779999999;;;12.3;85.0
73422;BME280;61637;47.760;-122.022;2024-01-30T07:34:00;101591.7;;;12.3;85.0
73422;BME280;61637;47.760;-122.022;2024-01-30T07:36:01;101625.56390000001;;;12.3;85.0
73422;BME280;61637;47.760;-122.022;2024-01-30T07:38:01;101659.42779999999;;;12.2;86.0
73422;BME280;61637;47.760;-122.022;2024-01-30T07:40:01;101659.42779999999;;;12.1;88.0
73422;BME280;61637;47.760;-122.022;2024-01-30T07:42:01;101659.42779999999;;;11.9;87.0
73422;BME280;61637;47.760;-122.022;2024-01-30T07:44:00;101659.42779999999;;;11.9;85.0
73422;BME280;61637;47.760;-122.022;2024-01-30T07:46:00;101659.42779999999;;;11.9;87.0
73422;BME280;61637;47.760;-122.022;2024-01-30T07:48:01;101625.56390000001;;;11.9;87.0
73422;BME280;61637;47.760;-122.022;2024-01-30T07:50:01;101625.56390000001;;;11.9;87.0
73422;BME280;61637;47.760;-122.022;2024-01-30T07:52:01;101591.7;;;11.8;87.0
73422;BME280;61637;47.760;-122.022;2024-01-30T07:54:01;101591.7;;;11.8;88.0
73422;BME280;61637;47.760;-122.022;2024-01-30T07:56:00;101591.7;;;11.7;88.0
73422;BME280;61637;47.760;-122.022;2024-01-30T07:58:01;101591.7;;;11.7;87.0
73422;BME280;61637;47.760;-122.022;2024-01-30T08:00:01;101591.7;;;11.7;87.0
73422;BME280;61637;47.760;-122.022;2024-01-30T08:02:01;101591.7;;;11.7;86.0
73422;BME280;61637;47.760;-122.022;2024-01-30T08:04:00;101591.7;;;11.7;86.0
73422;BME280;61637;47.760;-122.022;2024-01-30T08:06:00;101557.83609999999;;;11.8;85.0
73422;BME280;61637;47.760;-122.022;2024-01-30T08:08:00;101557.83609999999;;;11.8;85.0
73422;BME280;61637;47.760;-122.022;2024-01-30T08:10:01;101591.7;;;11.8;85.0
73422;BME280;61637;47.760;-122.022;2024-01-30T08:12:00;101591.7;;;11.8;86.0
73422;BME280;61637;47.760;-122.022;2024-01-30T08:14:01;101591.7;;;11.8;87.0
73422;BME280;61637;47.760;-122.022;2024-01-30T08:16:00;101591.7;;;11.7;87.0
73422;BME280;61637;47.760;-122.022;2024-01-30T08:18:00;101591.7;;;11.7;85.0
73422;BME280;61637;47.760;-122.022;2024-01-30T08:20:01;101591.7;;;11.7;85.0
73422;BME280;61637;47.760;-122.022;2024-01-30T08:22:00;101591.7;;;11.7;84.0
73422;BME280;61637;47.760;-122.022;2024-01-30T08:24:00;101625.56390000001;;;11.7;84.0
73422;BME280;61637;47.760;-122.022;2024-01-30T08:26:00;101625.56390000001;;;11.8;84.0
73422;BME280;61637;47.760;-122.022;2024-01-30T08:28:00;101625.56390000001;;;11.8;83.0
73422;BME280;61637;47.760;-122.022;2024-01-30T08:30:01;101625.56390000001;;;11.9;83.0
73422;BME280;61637;47.760;-122.022;2024-01-30T08:32:01;101659.42779999999;;;12.1;83.0
73422;BME280;61637;47.760;-122.022;2024-01-30T08:34:00;101625.56390000001;;;12.2;82.0
73422;BME280;61637;47.760;-122.022;2024-01-30T08:36:00;101625.56390000001;;;12.2;83.0
73422;BME280;61637;47.760;-122.022;2024-01-30T08:38:00;101659.42779999999;;;12.2;83.0
73422;BME280;61637;47.760;-122.022;2024-01-30T08:40:00;101659.42779999999;;;12.3;82.0
73422;BME280;61637;47.760;-122.022;2024-01-30T08:42:02;101625.56390000001;;;12.3;84.0
73422;BME280;61637;47.760;-122.022;2024-01-30T08:44:01;101625.56390000001;;;12.3;83.0
73422;BME280;61637;47.760;-122.022;2024-01-30T08:46:01;101659.42779999999;;;12.3;83.0
73422;BME280;61637;47.760;-122.022;2024-01-30T08:48:00;101659.42779999999;;;12.3;84.0
73422;BME280;61637;47.760;-122.022;2024-01-30T08:50:01;101659.42779999999;;;12.3;85.0
73422;BME280;61637;47.760;-122.022;2024-01-30T08:52:01;101659.42779999999;;;12.2;84.0
73422;BME280;61637;47.760;-122.022;2024-01-30T08:54:02;101659.42779999999;;;12.2;84.0
73422;BME280;61637;47.760;-122.022;2024-01-30T08:56:01;101659.42779999999;;;12.2;83.0
73422;BME280;61637;47.760;-122.022;2024-01-30T08:58:00;101659.42779999999;;;12.2;84.0
73422;BME280;61637;47.760;-122.022;2024-01-30T09:00:01;101659.42779999999;;;12.2;84.0
73422;BME280;61637;47.760;-122.022;2024-01-30T09:02:01;101659.42779999999;;;12.2;83.0
73422;BME280;61637;47.760;-122.022;2024-01-30T09:04:00;101625.56390000001;;;12.2;83.0
73422;BME280;61637;47.760;-122.022;2024-01-30T09:06:00;101659.42779999999;;;12.3;82.0
73422;BME280;61637;47.760;-122.022;2024-01-30T09:08:00;101625.56390000001;;;12.3;82.0
73422;BME280;61637;47.760;-122.022;2024-01-30T09:10:00;101625.56390000001;;;12.3;84.0
73422;BME280;61637;47.760;-122.022;2024-01-30T09:12:00;101659.42779999999;;;12.3;84.0
73422;BME280;61637;47.760;-122.022;2024-01-30T09:14:01;101659.42779999999;;;12.3;84.0
73422;BME280;61637;47.760;-122.022;2024-01-30T09:16:00;101659.42779999999;;;12.3;84.0
73422;BME280;61637;47.760;-122.022;2024-01-30T09:18:01;101659.42779999999;;;12.2;84.0
73422;BME280;61637;47.760;-122.022;2024-01-30T09:20:00;101659.42779999999;;;12.2;84.0
73422;BME280;61637;47.760;-122.022;2024-01-30T09:22:00;101659.42779999999;;;12.3;83.0
73422;BME280;61637;47.760;-122.022;2024-01-30T09:24:02;101659.42779999999;;;12.3;85.0
73422;BME280;61637;47.760;-122.022;2024-01-30T09:26:00;101659.42779999999;;;12.3;83.0
73422;BME280;61637;47.760;-122.022;2024-01-30T09:28:00;101659.42779999999;;;12.3;83.0
73422;BME280;61637;47.760;-122.022;2024-01-30T09:30:00;101659.42779999999;;;12.3;84.0
73422;BME280;61637;47.760;-122.022;2024-01-30T09:32:00;101659.42779999999;;;12.3;83.0
73422;BME280;61637;47.760;-122.022;2024-01-30T09:34:00;101693.2917;;;12.3;84.0
73422;BME280;61637;47.760;-122.022;2024-01-30T09:36:02;101659.42779999999;;;12.3;85.0
73422;BME280;61637;47.760;-122.022;2024-01-30T09:38:00;101659.42779999999;;;12.3;84.0
73422;BME280;61637;47.760;-122.022;2024-01-30T09:40:01;101659.42779999999;;;12.3;84.0
73422;BME280;61637;47.760;-122.022;2024-01-30T09:42:02;101659.42779999999;;;12.2;85.0
73422;BME280;61637;47.760;-122.022;2024-01-30T09:44:00;101659.42779999999;;;12.2;87.0
73422;BME280;61637;47.760;-122.022;2024-01-30T09:46:01;101659.42779999999;;;12.2;85.0